sensor_id;sensor_type;location;lat;lon;timestamp;pressure;altitude;pressure_sealevel;temperature;humidity
47761;BME280;33524;55.434;38.520;2022-08-01T00:00:11;100550.94;;;13.81;70.66
47761;BME280;33524;55.434;38.520;2022-08-01T00:02:39;100546.16;;;13.75;70.57
47761;BME280;33524;55.434;38.520;2022-08-01T00:05:08;100550.16;;;13.37;73.00
47761;BME280;33524;55.434;38.520;2022-08-01T00:07:37;100544.06;;;13.58;71.88
47761;BME280;33524;55.434;38.520;2022-08-01T00:10:11;100546.28;;;13.95;70.26
47761;BME280;33524;55.434;38.520;2022-08-01T00:12:40;100544.38;;;14.89;66.67
47761;BME280;33524;55.434;38.520;2022-08-01T00:15:11;100547.09;;;15.18;65.02
47761;BME280;33524;55.434;38.520;2022-08-01T00:17:40;100543.72;;;14.97;65.68
47761;BME280;33524;55.434;38.520;2022-08-01T00:20:13;100551.41;;;15.09;65.35
47761;BME280;33524;55.434;38.520;2022-08-01T00:22:42;100545.66;;;15.04;65.25
47761;BME280;33524;55.434;38.520;2022-08-01T00:25:27;100549.88;;;14.66;66.36
47761;BME280;33524;55.434;38.520;2022-08-01T00:28:01;100554.47;;;14.64;66.64
47761;BME280;33524;55.434;38.520;2022-08-01T00:30:31;100547.91;;;14.59;66.55
47761;BME280;33524;55.434;38.520;2022-08-01T00:32:59;100548.53;;;14.20;68.13
47761;BME280;33524;55.434;38.520;2022-08-01T00:35:27;100552.84;;;14.21;68.24
47761;BME280;33524;55.434;38.520;2022-08-01T00:37:55;100551.50;;;14.27;67.91
47761;BME280;33524;55.434;38.520;2022-08-01T00:40:23;100548.72;;;14.28;67.93
47761;BME280;33524;55.434;38.520;2022-08-01T00:42:53;100556.66;;;14.07;68.77
47761;BME280;33524;55.434;38.520;2022-08-01T00:45:21;100557.72;;;14.16;68.32
47761;BME280;33524;55.434;38.520;2022-08-01T00:47:49;100565.03;;;14.33;67.76
47761;BME280;33524;55.434;38.520;2022-08-01T00:50:22;100558.22;;;14.10;68.35
47761;BME280;33524;55.434;38.520;2022-08-01T00:52:51;100562.63;;;13.35;71.22
47761;BME280;33524;55.434;38.520;2022-08-01T00:55:19;100554.47;;;13.27;71.69
47761;BME280;33524;55.434;38.520;2022-08-01T00:57:48;100554.47;;;13.27;72.33
47761;BME280;33524;55.434;38.520;2022-08-01T01:00:33;100558.13;;;13.03;72.92
47761;BME280;33524;55.434;38.520;2022-08-01T01:03:21;100557.69;;;12.98;73.52
47761;BME280;33524;55.434;38.520;2022-08-01T01:06:13;100556.50;;;12.68;74.74
47761;BME280;33524;55.434;38.520;2022-08-01T01:08:58;100554.16;;;13.31;72.64
47761;BME280;33524;55.434;38.520;2022-08-01T01:11:35;100532.34;;;13.50;71.06
47761;BME280;33524;55.434;38.520;2022-08-01T01:14:10;100550.66;;;13.31;71.65
47761;BME280;33524;55.434;38.520;2022-08-01T01:16:41;100546.25;;;13.52;71.21
47761;BME280;33524;55.434;38.520;2022-08-01T01:19:15;100542.91;;;12.96;73.59
47761;BME280;33524;55.434;38.520;2022-08-01T01:21:55;100549.09;;;12.51;75.71
47761;BME280;33524;55.434;38.520;2022-08-01T01:24:37;100551.69;;;12.96;74.33
47761;BME280;33524;55.434;38.520;2022-08-01T01:27:21;100546.41;;;12.17;77.64
47761;BME280;33524;55.434;38.520;2022-08-01T01:29:54;100551.66;;;12.06;78.71
47761;BME280;33524;55.434;38.520;2022-08-01T01:32:33;100547.41;;;12.39;77.23
47761;BME280;33524;55.434;38.520;2022-08-01T01:35:07;100542.37;;;12.69;75.75
47761;BME280;33524;55.434;38.520;2022-08-01T01:37:38;100542.59;;;12.66;75.83
47761;BME280;33524;55.434;38.520;2022-08-01T01:40:09;100545.72;;;12.71;75.34
47761;BME280;33524;55.434;38.520;2022-08-01T01:42:39;100543.94;;;13.16;73.47
47761;BME280;33524;55.434;38.520;2022-08-01T01:45:10;100536.44;;;13.43;71.94
47761;BME280;33524;55.434;38.520;2022-08-01T01:47:39;100543.91;;;13.38;72.33
47761;BME280;33524;55.434;38.520;2022-08-01T01:50:09;100543.31;;;13.35;72.57
47761;BME280;33524;55.434;38.520;2022-08-01T01:52:40;100530.62;;;13.61;70.99
47761;BME280;33524;55.434;38.520;2022-08-01T01:55:10;100541.19;;;13.61;71.21
47761;BME280;33524;55.434;38.520;2022-08-01T01:57:41;100536.13;;;13.58;71.18
47761;BME280;33524;55.434;38.520;2022-08-01T02:00:11;100550.16;;;13.90;69.75
47761;BME280;33524;55.434;38.520;2022-08-01T02:02:41;100543.56;;;13.64;70.12
47761;BME280;33524;55.434;38.520;2022-08-01T02:05:12;100552.91;;;13.89;69.79
47761;BME280;33524;55.434;38.520;2022-08-01T02:07:40;100540.09;;;14.26;68.20
47761;BME280;33524;55.434;38.520;2022-08-01T02:10:10;100523.97;;;14.08;68.18
47761;BME280;33524;55.434;38.520;2022-08-01T02:12:41;100548.03;;;13.84;69.55
47761;BME280;33524;55.434;38.520;2022-08-01T02:15:13;100543.91;;;13.27;72.95
47761;BME280;33524;55.434;38.520;2022-08-01T02:17:46;100542.22;;;12.82;75.16
47761;BME280;33524;55.434;38.520;2022-08-01T02:20:16;100529.38;;;13.00;73.94
47761;BME280;33524;55.434;38.520;2022-08-01T02:22:52;100535.28;;;13.25;73.02
47761;BME280;33524;55.434;38.520;2022-08-01T02:25:22;100540.03;;;12.87;75.66
47761;BME280;33524;55.434;38.520;2022-08-01T02:27:59;100543.28;;;12.91;74.64
47761;BME280;33524;55.434;38.520;2022-08-01T02:30:42;100536.34;;;12.79;75.02
47761;BME280;33524;55.434;38.520;2022-08-01T02:33:20;100535.63;;;12.77;76.65
47761;BME280;33524;55.434;38.520;2022-08-01T02:35:54;100536.25;;;13.24;73.56
47761;BME280;33524;55.434;38.520;2022-08-01T02:38:45;100543.13;;;13.15;73.44
47761;BME280;33524;55.434;38.520;2022-08-01T02:41:19;100542.69;;;12.99;74.12
47761;BME280;33524;55.434;38.520;2022-08-01T02:43:53;100542.00;;;13.40;72.70
47761;BME280;33524;55.434;38.520;2022-08-01T02:46:33;100552.47;;;14.05;69.83
47761;BME280;33524;55.434;38.520;2022-08-01T02:49:03;100548.94;;;14.46;68.08
47761;BME280;33524;55.434;38.520;2022-08-01T02:51:34;100541.28;;;14.53;67.98
47761;BME280;33524;55.434;38.520;2022-08-01T02:54:05;100547.50;;;14.63;67.26
47761;BME280;33524;55.434;38.520;2022-08-01T02:56:35;100543.34;;;14.70;67.10
47761;BME280;33524;55.434;38.520;2022-08-01T02:59:16;100550.06;;;14.75;66.98
47761;BME280;33524;55.434;38.520;2022-08-01T03:01:49;100543.66;;;14.77;66.72
47761;BME280;33524;55.434;38.520;2022-08-01T03:04:23;100548.81;;;14.79;66.65
47761;BME280;33524;55.434;38.520;2022-08-01T03:06:54;100546.16;;;14.79;66.70
47761;BME280;33524;55.434;38.520;2022-08-01T03:09:26;100558.94;;;14.64;66.94
47761;BME280;33524;55.434;38.520;2022-08-01T03:11:59;100550.09;;;14.84;66.63
47761;BME280;33524;55.434;38.520;2022-08-01T03:14:29;100554.84;;;15.00;66.08
47761;BME280;33524;55.434;38.520;2022-08-01T03:16:59;100550.41;;;15.10;65.84
47761;BME280;33524;55.434;38.520;2022-08-01T03:19:35;100563.56;;;15.22;65.64
47761;BME280;33524;55.434;38.520;2022-08-01T03:22:08;100555.22;;;15.36;65.21
47761;BME280;33524;55.434;38.520;2022-08-01T03:24:39;100556.44;;;15.42;65.02
47761;BME280;33524;55.434;38.520;2022-08-01T03:27:08;100552.56;;;15.56;64.22
47761;BME280;33524;55.434;38.520;2022-08-01T03:29:39;100567.19;;;15.60;64.87
47761;BME280;33524;55.434;38.520;2022-08-01T03:32:09;100547.12;;;15.67;64.77
47761;BME280;33524;55.434;38.520;2022-08-01T03:34:38;100557.31;;;15.81;63.93
47761;BME280;33524;55.434;38.520;2022-08-01T03:37:29;100561.63;;;15.92;64.08
47761;BME280;33524;55.434;38.520;2022-08-01T03:40:51;100562.84;;;16.07;63.69
47761;BME280;33524;55.434;38.520;2022-08-01T03:43:13;100556.28;;;16.21;63.40
47761;BME280;33524;55.434;38.520;2022-08-01T03:45:48;100551.19;;;16.38;62.94
47761;BME280;33524;55.434;38.520;2022-08-01T03:48:18;100551.78;;;16.59;62.29
47761;BME280;33524;55.434;38.520;2022-08-01T03:50:50;100546.31;;;16.70;62.18
47761;BME280;33524;55.434;38.520;2022-08-01T03:53:26;100538.13;;;16.91;61.92
47761;BME280;33524;55.434;38.520;2022-08-01T03:55:59;100542.16;;;17.13;61.13
47761;BME280;33524;55.434;38.520;2022-08-01T03:58:29;100545.16;;;17.28;61.50
47761;BME280;33524;55.434;38.520;2022-08-01T04:00:58;100541.78;;;17.44;60.84
47761;BME280;33524;55.434;38.520;2022-08-01T04:03:27;100534.97;;;17.60;60.66
47761;BME280;33524;55.434;38.520;2022-08-01T04:05:55;100542.91;;;17.78;60.19
47761;BME280;33524;55.434;38.520;2022-08-01T04:08:23;100533.31;;;18.03;59.66
47761;BME280;33524;55.434;38.520;2022-08-01T04:11:01;100544.16;;;18.35;58.92
47761;BME280;33524;55.434;38.520;2022-08-01T04:13:31;100539.47;;;18.64;58.46
47761;BME280;33524;55.434;38.520;2022-08-01T04:16:04;100537.75;;;18.89;57.94
47761;BME280;33524;55.434;38.520;2022-08-01T04:18:32;100537.16;;;19.20;57.39
47761;BME280;33524;55.434;38.520;2022-08-01T04:21:00;100538.37;;;19.50;56.70
47761;BME280;33524;55.434;38.520;2022-08-01T04:23:30;100537.91;;;19.79;56.43
47761;BME280;33524;55.434;38.520;2022-08-01T04:26:01;100542.53;;;20.18;55.71
47761;BME280;33524;55.434;38.520;2022-08-01T04:28:34;100538.22;;;20.56;55.68
47761;BME280;33524;55.434;38.520;2022-08-01T04:31:06;100540.34;;;20.78;55.81
47761;BME280;33524;55.434;38.520;2022-08-01T04:33:43;100540.19;;;21.02;55.17
47761;BME280;33524;55.434;38.520;2022-08-01T04:36:14;100546.66;;;21.39;54.57
47761;BME280;33524;55.434;38.520;2022-08-01T04:38:45;100542.09;;;21.71;53.94
47761;BME280;33524;55.434;38.520;2022-08-01T04:41:16;100534.94;;;22.01;53.42
47761;BME280;33524;55.434;38.520;2022-08-01T04:43:44;100535.03;;;22.31;52.96
47761;BME280;33524;55.434;38.520;2022-08-01T04:46:13;100537.31;;;22.64;52.68
47761;BME280;33524;55.434;38.520;2022-08-01T04:48:42;100533.75;;;22.93;52.14
47761;BME280;33524;55.434;38.520;2022-08-01T04:51:14;100528.63;;;23.13;51.99
47761;BME280;33524;55.434;38.520;2022-08-01T04:53:43;100533.88;;;23.43;51.48
47761;BME280;33524;55.434;38.520;2022-08-01T04:56:14;100536.59;;;23.71;50.94
47761;BME280;33524;55.434;38.520;2022-08-01T04:58:43;100538.94;;;24.02;50.20
47761;BME280;33524;55.434;38.520;2022-08-01T05:01:11;100536.22;;;24.30;50.06
47761;BME280;33524;55.434;38.520;2022-08-01T05:03:40;100530.56;;;24.53;49.55
47761;BME280;33524;55.434;38.520;2022-08-01T05:06:08;100534.63;;;24.77;49.10
47761;BME280;33524;55.434;38.520;2022-08-01T05:08:36;100532.63;;;25.00;48.80
47761;BME280;33524;55.434;38.520;2022-08-01T05:11:04;100524.22;;;25.23;48.84
47761;BME280;33524;55.434;38.520;2022-08-01T05:13:32;100536.28;;;25.60;48.02
47761;BME280;33524;55.434;38.520;2022-08-01T05:16:00;100533.41;;;25.95;47.45
47761;BME280;33524;55.434;38.520;2022-08-01T05:18:31;100529.22;;;26.19;46.83
47761;BME280;33524;55.434;38.520;2022-08-01T05:20:59;100528.72;;;26.49;46.45
47761;BME280;33524;55.434;38.520;2022-08-01T05:23:28;100531.38;;;26.69;46.29
47761;BME280;33524;55.434;38.520;2022-08-01T05:26:10;100534.81;;;26.89;45.97
47761;BME280;33524;55.434;38.520;2022-08-01T05:28:41;100525.09;;;27.13;45.56
47761;BME280;33524;55.434;38.520;2022-08-01T05:31:09;100529.88;;;27.11;45.77
47761;BME280;33524;55.434;38.520;2022-08-01T05:33:37;100533.03;;;27.08;45.90
47761;BME280;33524;55.434;38.520;2022-08-01T05:36:23;100535.47;;;27.16;45.87
47761;BME280;33524;55.434;38.520;2022-08-01T05:38:51;100537.09;;;27.24;45.69
47761;BME280;33524;55.434;38.520;2022-08-01T05:41:19;100527.16;;;27.25;45.69
47761;BME280;33524;55.434;38.520;2022-08-01T05:43:47;100530.56;;;27.64;44.92
47761;BME280;33524;55.434;38.520;2022-08-01T05:46:15;100530.25;;;28.04;44.08
47761;BME280;33524;55.434;38.520;2022-08-01T05:48:43;100523.69;;;28.36;43.40
47761;BME280;33524;55.434;38.520;2022-08-01T05:51:12;100527.72;;;28.64;42.92
47761;BME280;33524;55.434;38.520;2022-08-01T05:53:40;100530.62;;;28.81;42.65
47761;BME280;33524;55.434;38.520;2022-08-01T05:56:08;100522.38;;;29.06;42.12
47761;BME280;33524;55.434;38.520;2022-08-01T05:58:37;100515.22;;;29.42;41.43
47761;BME280;33524;55.434;38.520;2022-08-01T06:01:05;100514.03;;;29.38;41.09
47761;BME280;33524;55.434;38.520;2022-08-01T06:03:33;100513.09;;;29.44;41.48
47761;BME280;33524;55.434;38.520;2022-08-01T06:06:02;100525.75;;;29.86;40.64
47761;BME280;33524;55.434;38.520;2022-08-01T06:08:30;100516.34;;;30.00;40.28
47761;BME280;33524;55.434;38.520;2022-08-01T06:10:59;100514.31;;;30.31;39.70
47761;BME280;33524;55.434;38.520;2022-08-01T06:13:27;100515.59;;;30.40;39.56
47761;BME280;33524;55.434;38.520;2022-08-01T06:15:56;100516.38;;;30.52;39.44
47761;BME280;33524;55.434;38.520;2022-08-01T06:18:24;100517.22;;;30.82;38.94
47761;BME280;33524;55.434;38.520;2022-08-01T06:20:52;100515.88;;;30.96;38.73
47761;BME280;33524;55.434;38.520;2022-08-01T06:23:20;100514.59;;;30.87;38.94
47761;BME280;33524;55.434;38.520;2022-08-01T06:25:59;100514.56;;;30.98;38.78
47761;BME280;33524;55.434;38.520;2022-08-01T06:28:27;100512.31;;;31.07;38.62
47761;BME280;33524;55.434;38.520;2022-08-01T06:30:55;100511.41;;;31.18;38.58
47761;BME280;33524;55.434;38.520;2022-08-01T06:33:27;100510.41;;;31.25;37.91
47761;BME280;33524;55.434;38.520;2022-08-01T06:35:55;100512.44;;;31.46;37.88
47761;BME280;33524;55.434;38.520;2022-08-01T06:38:24;100505.84;;;31.76;37.54
47761;BME280;33524;55.434;38.520;2022-08-01T06:40:52;100512.19;;;32.21;36.35
47761;BME280;33524;55.434;38.520;2022-08-01T06:43:20;100515.81;;;32.70;35.68
47761;BME280;33524;55.434;38.520;2022-08-01T06:45:48;100514.53;;;33.05;35.28
47761;BME280;33524;55.434;38.520;2022-08-01T06:48:17;100513.50;;;33.39;34.59
47761;BME280;33524;55.434;38.520;2022-08-01T06:50:45;100501.03;;;33.80;34.16
47761;BME280;33524;55.434;38.520;2022-08-01T06:53:31;100514.75;;;33.95;34.12
47761;BME280;33524;55.434;38.520;2022-08-01T06:56:03;100507.91;;;33.98;34.14
47761;BME280;33524;55.434;38.520;2022-08-01T06:58:34;100507.09;;;33.97;34.13
47761;BME280;33524;55.434;38.520;2022-08-01T07:01:04;100509.09;;;33.65;34.57
47761;BME280;33524;55.434;38.520;2022-08-01T07:03:36;100507.28;;;33.81;34.24
47761;BME280;33524;55.434;38.520;2022-08-01T07:06:22;100510.28;;;33.79;34.53
47761;BME280;33524;55.434;38.520;2022-08-01T07:08:54;100508.72;;;33.93;34.07
47761;BME280;33524;55.434;38.520;2022-08-01T07:11:23;100510.81;;;33.76;34.49
47761;BME280;33524;55.434;38.520;2022-08-01T07:13:51;100513.06;;;33.20;34.95
47761;BME280;33524;55.434;38.520;2022-08-01T07:16:19;100517.38;;;33.80;34.42
47761;BME280;33524;55.434;38.520;2022-08-01T07:18:47;100513.06;;;33.89;34.15
47761;BME280;33524;55.434;38.520;2022-08-01T07:21:16;100524.59;;;34.02;33.65
47761;BME280;33524;55.434;38.520;2022-08-01T07:24:05;100509.53;;;33.89;33.31
47761;BME280;33524;55.434;38.520;2022-08-01T07:26:45;100520.28;;;33.68;33.45
47761;BME280;33524;55.434;38.520;2022-08-01T07:29:22;100506.81;;;34.52;32.13
47761;BME280;33524;55.434;38.520;2022-08-01T07:31:52;100518.37;;;34.69;31.83
47761;BME280;33524;55.434;38.520;2022-08-01T07:34:21;100515.78;;;35.31;31.08
47761;BME280;33524;55.434;38.520;2022-08-01T07:36:51;100516.56;;;34.27;32.89
47761;BME280;33524;55.434;38.520;2022-08-01T07:39:19;100514.59;;;34.91;31.61
47761;BME280;33524;55.434;38.520;2022-08-01T07:41:47;100511.66;;;35.54;30.88
47761;BME280;33524;55.434;38.520;2022-08-01T07:44:35;100501.50;;;35.85;30.37
47761;BME280;33524;55.434;38.520;2022-08-01T07:47:04;100504.75;;;35.97;30.43
47761;BME280;33524;55.434;38.520;2022-08-01T07:49:32;100506.44;;;35.68;30.85
47761;BME280;33524;55.434;38.520;2022-08-01T07:52:07;100504.00;;;35.41;31.28
47761;BME280;33524;55.434;38.520;2022-08-01T07:54:36;100505.25;;;36.20;30.48
47761;BME280;33524;55.434;38.520;2022-08-01T07:57:04;100498.72;;;36.01;30.28
47761;BME280;33524;55.434;38.520;2022-08-01T07:59:33;100501.78;;;36.64;29.74
47761;BME280;33524;55.434;38.520;2022-08-01T08:02:01;100508.37;;;35.67;30.22
47761;BME280;33524;55.434;38.520;2022-08-01T08:04:30;100501.84;;;36.44;30.33
47761;BME280;33524;55.434;38.520;2022-08-01T08:07:00;100496.78;;;36.16;30.06
47761;BME280;33524;55.434;38.520;2022-08-01T08:09:28;100498.22;;;36.64;30.10
47761;BME280;33524;55.434;38.520;2022-08-01T08:12:04;100503.47;;;37.00;29.45
47761;BME280;33524;55.434;38.520;2022-08-01T08:14:33;100498.63;;;37.26;29.17
47761;BME280;33524;55.434;38.520;2022-08-01T08:17:01;100492.09;;;37.22;29.39
47761;BME280;33524;55.434;38.520;2022-08-01T08:19:30;100492.28;;;37.65;28.82
47761;BME280;33524;55.434;38.520;2022-08-01T08:22:07;100483.44;;;37.39;28.91
47761;BME280;33524;55.434;38.520;2022-08-01T08:24:37;100496.38;;;36.93;29.60
47761;BME280;33524;55.434;38.520;2022-08-01T08:27:13;100504.41;;;36.85;29.72
47761;BME280;33524;55.434;38.520;2022-08-01T08:29:42;100491.69;;;37.92;28.39
47761;BME280;33524;55.434;38.520;2022-08-01T08:32:11;100490.06;;;38.15;27.95
47761;BME280;33524;55.434;38.520;2022-08-01T08:34:39;100491.34;;;37.99;28.11
47761;BME280;33524;55.434;38.520;2022-08-01T08:37:08;100489.56;;;38.56;27.07
47761;BME280;33524;55.434;38.520;2022-08-01T08:39:36;100486.94;;;39.03;26.86
47761;BME280;33524;55.434;38.520;2022-08-01T08:42:10;100481.28;;;39.13;26.60
47761;BME280;33524;55.434;38.520;2022-08-01T08:44:40;100481.41;;;38.70;27.18
47761;BME280;33524;55.434;38.520;2022-08-01T08:47:12;100485.69;;;38.57;27.64
47761;BME280;33524;55.434;38.520;2022-08-01T08:49:54;100469.69;;;36.10;30.19
47761;BME280;33524;55.434;38.520;2022-08-01T08:52:24;100473.47;;;36.79;30.67
47761;BME280;33524;55.434;38.520;2022-08-01T08:54:53;100472.31;;;39.07;27.25
47761;BME280;33524;55.434;38.520;2022-08-01T08:57:21;100467.03;;;37.87;26.72
47761;BME280;33524;55.434;38.520;2022-08-01T08:59:50;100474.87;;;38.66;27.81
47761;BME280;33524;55.434;38.520;2022-08-01T09:02:20;100472.75;;;39.75;25.27
47761;BME280;33524;55.434;38.520;2022-08-01T09:04:49;100468.94;;;39.43;26.32
47761;BME280;33524;55.434;38.520;2022-08-01T09:07:18;100466.31;;;39.52;26.66
47761;BME280;33524;55.434;38.520;2022-08-01T09:09:46;100475.13;;;39.35;25.55
47761;BME280;33524;55.434;38.520;2022-08-01T09:12:18;100463.59;;;37.76;28.63
47761;BME280;33524;55.434;38.520;2022-08-01T09:14:47;100465.59;;;39.13;20.34
47761;BME280;33524;55.434;38.520;2022-08-01T09:17:17;100457.75;;;40.37;25.67
47761;BME280;33524;55.434;38.520;2022-08-01T09:19:53;100454.59;;;41.65;23.96
47761;BME280;33524;55.434;38.520;2022-08-01T09:22:25;100465.25;;;39.94;26.31
47761;BME280;33524;55.434;38.520;2022-08-01T09:24:58;100459.94;;;39.38;26.58
47761;BME280;33524;55.434;38.520;2022-08-01T09:27:30;100454.78;;;38.65;19.52
47761;BME280;33524;55.434;38.520;2022-08-01T09:30:13;100447.25;;;40.75;25.19
47761;BME280;33524;55.434;38.520;2022-08-01T09:33:00;100456.44;;;40.20;26.01
47761;BME280;33524;55.434;38.520;2022-08-01T09:35:37;100444.16;;;41.22;24.20
47761;BME280;33524;55.434;38.520;2022-08-01T09:43:16;100457.06;;;39.29;25.60
47761;BME280;33524;55.434;38.520;2022-08-01T09:45:45;100461.47;;;36.05;21.51
47761;BME280;33524;55.434;38.520;2022-08-01T09:48:20;100448.03;;;37.13;19.03
47761;BME280;33524;55.434;38.520;2022-08-01T09:50:57;100437.63;;;41.80;23.79
47761;BME280;33524;55.434;38.520;2022-08-01T09:53:47;100442.75;;;42.30;23.34
47761;BME280;33524;55.434;38.520;2022-08-01T09:56:20;100456.03;;;36.00;24.26
47761;BME280;33524;55.434;38.520;2022-08-01T09:58:51;100448.19;;;38.66;26.61
47761;BME280;33524;55.434;38.520;2022-08-01T10:01:27;100435.81;;;37.53;18.41
47761;BME280;33524;55.434;38.520;2022-08-01T10:04:09;100443.84;;;35.35;22.02
47761;BME280;33524;55.434;38.520;2022-08-01T10:06:39;100448.41;;;33.47;20.98
47761;BME280;33524;55.434;38.520;2022-08-01T10:09:12;100432.81;;;38.65;18.91
47761;BME280;33524;55.434;38.520;2022-08-01T10:11:42;100431.25;;;37.14;28.23
47761;BME280;33524;55.434;38.520;2022-08-01T10:14:11;100433.41;;;38.43;21.78
47761;BME280;33524;55.434;38.520;2022-08-01T10:16:45;100426.87;;;39.43;25.89
47761;BME280;33524;55.434;38.520;2022-08-01T10:19:26;100414.88;;;41.43;19.77
47761;BME280;33524;55.434;38.520;2022-08-01T10:21:56;100421.19;;;39.94;21.28
47761;BME280;33524;55.434;38.520;2022-08-01T10:24:29;100428.38;;;36.56;27.95
47761;BME280;33524;55.434;38.520;2022-08-01T10:27:07;100421.81;;;38.65;16.17
47761;BME280;33524;55.434;38.520;2022-08-01T10:29:47;100425.03;;;35.19;19.20
47761;BME280;33524;55.434;38.520;2022-08-01T10:32:35;100419.94;;;40.51;24.90
47761;BME280;33524;55.434;38.520;2022-08-01T10:35:07;100412.94;;;41.12;22.51
47761;BME280;33524;55.434;38.520;2022-08-01T10:37:41;100416.03;;;40.29;17.70
47761;BME280;33524;55.434;38.520;2022-08-01T10:40:19;100425.88;;;36.15;18.32
47761;BME280;33524;55.434;38.520;2022-08-01T10:42:57;100416.13;;;40.10;24.43
47761;BME280;33524;55.434;38.520;2022-08-01T10:45:27;100414.84;;;34.63;20.57
47761;BME280;33524;55.434;38.520;2022-08-01T10:50:34;100402.91;;;40.71;19.33
47761;BME280;33524;55.434;38.520;2022-08-01T10:53:12;100407.97;;;40.19;23.99
47761;BME280;33524;55.434;38.520;2022-08-01T10:56:00;100422.75;;;35.56;20.11
47761;BME280;33524;55.434;38.520;2022-08-01T11:06:46;100424.50;;;29.56;27.07
47761;BME280;33524;55.434;38.520;2022-08-01T11:09:24;100423.31;;;29.41;26.75
47761;BME280;33524;55.434;38.520;2022-08-01T11:17:36;100417.66;;;33.14;28.90
47761;BME280;33524;55.434;38.520;2022-08-01T11:20:13;100427.37;;;33.80;26.49
47761;BME280;33524;55.434;38.520;2022-08-01T11:28:27;100417.47;;;34.22;26.09
47761;BME280;33524;55.434;38.520;2022-08-01T11:41:29;100419.81;;;28.86;36.80
47761;BME280;33524;55.434;38.520;2022-08-01T11:44:06;100422.25;;;29.89;40.60
47761;BME280;33524;55.434;38.520;2022-08-01T11:46:49;100423.41;;;28.01;31.22
47761;BME280;33524;55.434;38.520;2022-08-01T11:52:23;100412.50;;;29.76;28.55
47761;BME280;33524;55.434;38.520;2022-08-01T11:55:12;100402.16;;;28.84;28.71
47761;BME280;33524;55.434;38.520;2022-08-01T11:57:43;100399.63;;;29.12;28.88
47761;BME280;33524;55.434;38.520;2022-08-01T12:00:17;100395.41;;;29.87;28.79
47761;BME280;33524;55.434;38.520;2022-08-01T12:02:48;100387.72;;;30.36;26.72
47761;BME280;33524;55.434;38.520;2022-08-01T12:05:26;100382.81;;;32.57;33.41
47761;BME280;33524;55.434;38.520;2022-08-01T12:07:58;100378.50;;;32.12;29.69
47761;BME280;33524;55.434;38.520;2022-08-01T12:10:29;100370.84;;;33.23;28.65
47761;BME280;33524;55.434;38.520;2022-08-01T12:13:02;100386.09;;;31.49;27.64
47761;BME280;33524;55.434;38.520;2022-08-01T12:15:33;100387.41;;;30.21;28.43
47761;BME280;33524;55.434;38.520;2022-08-01T12:18:08;100382.34;;;30.99;29.50
47761;BME280;33524;55.434;38.520;2022-08-01T12:20:40;100385.41;;;32.47;27.28
47761;BME280;33524;55.434;38.520;2022-08-01T12:23:23;100385.13;;;31.04;28.15
47761;BME280;33524;55.434;38.520;2022-08-01T12:25:52;100380.56;;;29.31;29.83
47761;BME280;33524;55.434;38.520;2022-08-01T12:28:21;100384.66;;;29.81;29.41
47761;BME280;33524;55.434;38.520;2022-08-01T12:30:50;100379.19;;;28.74;32.36
47761;BME280;33524;55.434;38.520;2022-08-01T12:33:20;100378.28;;;28.32;33.04
47761;BME280;33524;55.434;38.520;2022-08-01T12:35:48;100379.63;;;28.60;35.76
47761;BME280;33524;55.434;38.520;2022-08-01T12:38:36;100382.00;;;30.95;35.47
47761;BME280;33524;55.434;38.520;2022-08-01T12:41:04;100372.66;;;31.81;27.60
47761;BME280;33524;55.434;38.520;2022-08-01T12:43:32;100377.47;;;31.18;28.68
47761;BME280;33524;55.434;38.520;2022-08-01T12:46:02;100374.59;;;30.05;30.06
47761;BME280;33524;55.434;38.520;2022-08-01T12:48:30;100384.91;;;29.20;31.46
47761;BME280;33524;55.434;38.520;2022-08-01T12:50:59;100383.44;;;28.82;32.84
47761;BME280;33524;55.434;38.520;2022-08-01T12:53:33;100382.03;;;28.80;33.24
47761;BME280;33524;55.434;38.520;2022-08-01T12:56:09;100386.78;;;28.35;34.79
47761;BME280;33524;55.434;38.520;2022-08-01T12:58:40;100382.63;;;28.03;35.71
47761;BME280;33524;55.434;38.520;2022-08-01T13:01:10;100382.31;;;27.55;36.57
47761;BME280;33524;55.434;38.520;2022-08-01T13:03:39;100379.16;;;27.77;37.09
47761;BME280;33524;55.434;38.520;2022-08-01T13:06:12;100367.19;;;28.94;35.35
47761;BME280;33524;55.434;38.520;2022-08-01T13:08:44;100367.75;;;30.43;31.58
47761;BME280;33524;55.434;38.520;2022-08-01T13:11:13;100362.13;;;32.34;28.66
47761;BME280;33524;55.434;38.520;2022-08-01T13:14:03;100356.84;;;32.49;27.32
47761;BME280;33524;55.434;38.520;2022-08-01T13:16:31;100345.34;;;32.69;26.79
47761;BME280;33524;55.434;38.520;2022-08-01T13:19:20;100342.13;;;34.21;25.19
47761;BME280;33524;55.434;38.520;2022-08-01T13:21:55;100342.88;;;35.70;22.61
47761;BME280;33524;55.434;38.520;2022-08-01T13:24:28;100328.91;;;36.61;21.59
47761;BME280;33524;55.434;38.520;2022-08-01T13:26:59;100331.41;;;37.21;19.78
47761;BME280;33524;55.434;38.520;2022-08-01T13:31:58;100334.38;;;37.72;18.76
47761;BME280;33524;55.434;38.520;2022-08-01T13:34:33;100322.56;;;38.15;19.34
47761;BME280;33524;55.434;38.520;2022-08-01T13:37:02;100331.63;;;38.67;18.23
47761;BME280;33524;55.434;38.520;2022-08-01T13:39:33;100324.84;;;38.46;17.29
47761;BME280;33524;55.434;38.520;2022-08-01T13:42:16;100328.19;;;38.75;18.54
47761;BME280;33524;55.434;38.520;2022-08-01T13:44:46;100325.72;;;38.60;18.67
47761;BME280;33524;55.434;38.520;2022-08-01T13:47:14;100331.75;;;36.85;20.00
47761;BME280;33524;55.434;38.520;2022-08-01T13:49:43;100336.25;;;37.29;19.52